Time;durP1;ratioP1;P1;durP2;ratioP2;P2;SDS_P1;SDS_P2;PMS_P1;PMS_P2;Temp;Humidity;BMP_temperature;BMP_pressure;BME280_temperature;BME280_humidity;BME280_pressure;Samples;Min_cycle;Max_cycle;Signal;HPM_P1;HPM_P2
2021/04/28 00:02:07;;;;;;;5.95;3.52;;;;;;;4.46;95.92;101173.88;1760442;81;21157;-50
2021/04/28 00:04:34;;;;;;;6.17;3.72;;;;;;;4.46;95.92;101173.88;1774775;80;21543;-50
2021/04/28 00:07:03;;;;;;;7.40;3.95;;;;;;;4.44;96.09;101175.66;1760493;81;21166;-50
2021/04/28 00:09:32;;;;;;;5.42;3.45;;;;;;;4.39;96.46;101178.78;1774720;80;22251;-50
2021/04/28 00:12:02;;;;;;;11.78;3.65;;;;;;;4.36;96.58;101169.03;1760407;81;21113;-59
2021/04/28 00:14:30;;;;;;;9.58;4.05;;;;;;;4.35;96.76;101167.73;1774655;80;21112;-51
2021/04/28 00:16:58;;;;;;;9.25;4.03;;;;;;;4.34;97.10;101170.81;1760548;81;21145;-51
2021/04/28 00:19:28;;;;;;;24.57;4.20;;;;;;;4.31;97.45;101170.83;1774709;80;21460;-51
2021/04/28 00:21:55;;;;;;;14.30;4.00;;;;;;;4.27;97.73;101174.38;1759391;81;21205;-51
2021/04/28 00:24:24;;;;;;;24.57;4.20;;;;;;;4.24;97.85;101164.64;1771267;81;21094;-51
2021/04/28 00:26:52;;;;;;;26.65;5.10;;;;;;;4.20;98.14;101165.53;1754918;81;21054;-51
2021/04/28 00:29:21;;;;;;;11.90;3.80;;;;;;;4.18;98.30;101168.64;1771428;81;21547;-51
2021/04/28 00:31:51;;;;;;;7.33;3.10;;;;;;;4.13;98.39;101173.08;1754972;81;21444;-52
2021/04/28 00:34:18;;;;;;;7.10;3.50;;;;;;;4.12;98.53;101178.81;1771332;81;21318;-50
2021/04/28 00:36:46;;;;;;;12.25;3.92;;;;;;;4.10;98.54;101174.42;1754866;81;21146;-52
2021/04/28 00:39:14;;;;;;;12.95;3.67;;;;;;;4.08;98.58;101182.37;1771306;81;21111;-50
2021/04/28 00:41:43;;;;;;;7.50;4.45;;;;;;;4.05;98.58;101180.14;1754840;81;21053;-50
2021/04/28 00:44:11;;;;;;;17.02;4.05;;;;;;;4.04;98.70;101189.89;1771377;81;21103;-52
2021/04/28 00:46:40;;;;;;;14.35;3.50;;;;;;;4.02;98.75;101183.70;1754813;81;21457;-51
2021/04/28 00:49:08;;;;;;;25.88;3.90;;;;;;;3.95;98.90;101174.86;1771354;81;21139;-50
2021/04/28 00:51:36;;;;;;;18.90;3.98;;;;;;;3.95;98.90;101174.86;1754826;81;21078;-51
2021/04/28 00:54:05;;;;;;;13.70;3.77;;;;;;;3.89;99.64;101183.26;1771376;81;21079;-51
2021/04/28 00:56:33;;;;;;;14.23;3.77;;;;;;;3.89;99.64;101183.26;1755394;81;21538;-51
2021/04/28 00:59:01;;;;;;;14.47;3.83;;;;;;;3.84;99.88;101184.58;1758381;81;21532;-51
2021/04/28 01:01:29;;;;;;;11.40;3.33;;;;;;;3.83;100.00;101189.44;1758182;81;21174;-51
2021/04/28 01:03:57;;;;;;;8.63;4.22;;;;;;;3.81;100.00;101173.97;1758393;81;21154;-50
2021/04/28 01:06:25;;;;;;;11.45;4.12;;;;;;;3.79;100.00;101167.78;1758351;81;21051;-50
2021/04/28 01:08:54;;;;;;;15.85;4.22;;;;;;;3.73;100.00;101154.08;1758339;81;21050;-50
2021/04/28 01:11:22;;;;;;;8.43;4.25;;;;;;;3.71;100.00;101156.75;1758460;81;21456;-51
2021/04/28 01:13:58;;;;;;;11.53;4.22;;;;;;;3.69;100.00;101173.10;1757863;81;21090;-50
2021/04/28 01:16:26;;;;;;;14.20;4.03;;;;;;;3.66;100.00;101165.16;1758457;81;21486;-50
2021/04/28 01:18:55;;;;;;;16.65;3.87;;;;;;;3.64;100.00;101162.05;1758280;81;21062;-51
2021/04/28 01:21:23;;;;;;;8.78;4.08;;;;;;;3.62;100.00;101171.31;1758331;81;21067;-51
2021/04/28 01:23:51;;;;;;;15.50;4.90;;;;;;;3.63;100.00;101174.41;1762977;80;21697;-51
2021/04/28 01:26:24;;;;;;;17.50;4.30;;;;;;;3.63;100.00;101170.42;1763985;81;21137;-51
2021/04/28 01:28:58;;;;;;;18.30;3.98;;;;;;;3.62;100.00;101175.29;1763989;81;21576;-51
2021/04/28 01:31:29;;;;;;;17.65;4.85;;;;;;;3.63;100.00;101174.41;1764005;81;21072;-52
2021/04/28 01:33:59;;;;;;;18.87;4.00;;;;;;;3.64;100.00;101169.54;1763987;80;21149;-51
2021/04/28 01:36:37;;;;;;;9.15;4.65;;;;;;;3.66;100.00;101169.13;1763966;81;21640;-50
2021/04/28 01:39:09;;;;;;;24.80;4.95;;;;;;;3.70;100.00;101166.02;1758761;80;21109;-50
2021/04/28 01:41:42;;;;;;;16.82;4.65;;;;;;;3.70;100.00;101156.30;1786689;80;21152;-50
2021/04/28 01:44:13;;;;;;;10.60;4.47;;;;;;;3.70;100.00;101170.89;1757950;80;21156;-50
2021/04/28 01:46:41;;;;;;;11.22;3.92;;;;;;;3.69;100.00;101167.80;1786869;80;21522;-50
2021/04/28 01:49:10;;;;;;;10.28;4.62;;;;;;;3.68;100.00;101167.78;1786906;79;22722;-50
2021/04/28 01:51:39;;;;;;;19.92;4.40;;;;;;;3.66;100.00;101174.44;1786626;80;21164;-50
2021/04/28 01:54:12;;;;;;;29.75;5.28;;;;;;;3.63;100.00;101178.38;1786759;80;21113;-50
2021/04/28 01:56:40;;;;;;;21.60;4.87;;;;;;;3.63;100.00;101177.52;1785961;79;21135;-50
2021/04/28 01:59:29;;;;;;;8.67;4.80;;;;;;;3.67;100.00;101178.85;1873119;76;22210;-50
2021/04/28 02:02:03;;;;;;;8.18;5.20;;;;;;;3.59;100.00;101179.27;1841181;77;21005;-51
2021/04/28 02:04:33;;;;;;;15.95;5.22;;;;;;;3.53;100.00;101180.59;1841012;78;21081;-51
2021/04/28 02:07:01;;;;;;;35.17;5.80;;;;;;;3.47;100.00;101171.32;1811312;78;21321;-51
2021/04/28 02:09:31;;;;;;;15.23;5.03;;;;;;;3.42;100.00;101168.20;1841120;78;20974;-51
2021/04/28 02:11:58;;;;;;;15.55;5.50;;;;;;;3.39;100.00;101161.57;1841150;78;20942;-52
2021/04/28 02:14:28;;;;;;;14.13;6.37;;;;;;;3.37;100.00;101156.70;1841036;78;20921;-51
2021/04/28 02:17:04;;;;;;;19.32;6.33;;;;;;;3.33;100.00;101149.64;1840098;77;21563;-51
2021/04/28 02:19:36;;;;;;;12.65;5.87;;;;;;;3.30;100.00;101159.78;1841070;78;20996;-51
2021/04/28 02:22:04;;;;;;;28.83;7.15;;;;;;;3.27;100.00;101159.78;1784965;78;21510;-51
2021/04/28 02:24:41;;;;;;;29.12;7.22;;;;;;;3.25;100.00;101162.87;1779995;78;21084;-50
2021/04/28 02:27:09;;;;;;;30.25;6.70;;;;;;;3.22;100.00;101161.55;1840968;78;21040;-50
2021/04/28 02:29:36;;;;;;;31.82;6.62;;;;;;;3.21;100.00;101159.78;1841043;78;21529;-50
2021/04/28 02:32:07;;;;;;;18.40;6.87;;;;;;;3.20;100.00;101162.41;1840968;78;21108;-50
2021/04/28 02:34:42;;;;;;;23.22;7.35;;;;;;;3.20;100.00;101179.64;1836063;78;21143;-50
2021/04/28 02:37:12;;;;;;;22.22;6.60;;;;;;;3.18;100.00;101180.98;1838898;78;21187;-50
2021/04/28 02:40:05;;;;;;;38.70;6.60;;;;;;;3.17;100.00;101175.66;1841140;78;21124;-51
2021/04/28 02:42:35;;;;;;;34.75;7.50;;;;;;;3.17;100.00;101174.34;1841097;78;21299;-50
2021/04/28 02:45:05;;;;;;;21.73;7.53;;;;;;;3.18;100.00;101177.43;1840908;78;21120;-50
2021/04/28 02:47:34;;;;;;;37.42;7.97;;;;;;;3.18;100.00;101166.83;1841061;78;21096;-50
2021/04/28 02:50:06;;;;;;;22.62;7.75;;;;;;;3.20;100.00;101171.69;1841095;78;21575;-50
2021/04/28 02:52:53;;;;;;;28.55;8.68;;;;;;;3.21;100.00;101165.54;1841297;77;21812;-50
2021/04/28 02:55:21;;;;;;;29.15;7.83;;;;;;;3.21;100.00;101171.70;1841003;78;21329;-51
2021/04/28 02:57:51;;;;;;;19.00;8.15;;;;;;;3.24;100.00;101171.70;1831986;77;20984;-51
2021/04/28 03:00:21;;;;;;;29.30;7.83;;;;;;;3.24;100.00;101164.22;1828149;78;21043;-50
2021/04/28 03:02:49;;;;;;;28.87;8.33;;;;;;;3.25;100.00;101167.31;1828191;78;21463;-50
2021/04/28 03:05:20;;;;;;;27.82;8.05;;;;;;;3.26;100.00;101171.27;1828153;78;21058;-50
2021/04/28 03:08:07;;;;;;;33.30;7.58;;;;;;;3.27;100.00;101162.89;1828101;78;21680;-50
2021/04/28 03:10:35;;;;;;;22.93;7.17;;;;;;;3.31;100.00;101171.28;1827553;78;21530;-50
2021/04/28 03:13:03;;;;;;;14.73;7.78;;;;;;;3.33;100.00;101169.52;1827476;78;21129;-50
2021/04/28 03:15:32;;;;;;;19.17;8.18;;;;;;;3.37;100.00;101179.23;1827557;78;21165;-51
2021/04/28 03:18:01;;;;;;;18.50;8.33;;;;;;;3.39;100.00;101174.82;1827467;78;21377;-51
2021/04/28 03:20:31;;;;;;;25.05;7.85;;;;;;;3.44;100.00;101171.77;1827368;78;21387;-51
2021/04/28 03:23:01;;;;;;;21.52;7.12;;;;;;;3.49;100.00;101177.50;1827488;78;21134;-50
2021/04/28 03:25:28;;;;;;;16.12;6.78;;;;;;;3.54;100.00;101188.99;1827557;78;21542;-50
2021/04/28 03:27:57;;;;;;;20.72;7.87;;;;;;;3.60;100.00;101192.97;1827523;78;21078;-51
2021/04/28 03:30:25;;;;;;;21.60;7.75;;;;;;;3.67;100.00;101193.44;1827498;78;21110;-51
2021/04/28 03:32:54;;;;;;;18.17;7.47;;;;;;;3.73;100.00;101197.41;1827530;78;21675;-50
2021/04/28 03:35:26;;;;;;;13.18;7.12;;;;;;;3.82;100.00;101204.92;1774483;78;21110;-50
2021/04/28 03:37:56;;;;;;;16.48;6.92;;;;;;;3.93;100.00;101211.12;1824656;78;21110;-51
2021/04/28 03:40:24;;;;;;;11.60;6.40;;;;;;;4.04;100.00;101205.81;1827567;78;21122;-52
2021/04/28 03:42:52;;;;;;;12.47;6.78;;;;;;;4.15;100.00;101201.83;1827572;78;21153;-50
2021/04/28 03:45:20;;;;;;;16.17;7.45;;;;;;;4.22;100.00;101200.92;1827486;78;21674;-51
2021/04/28 03:47:48;;;;;;;10.98;6.65;;;;;;;4.30;100.00;101202.24;1827536;78;21059;-50
2021/04/28 03:50:16;;;;;;;13.20;7.58;;;;;;;4.37;100.00;101212.41;1827548;78;21134;-50
2021/04/28 03:52:48;;;;;;;12.45;6.50;;;;;;;4.47;100.00;101212.82;1824800;78;20999;-51
2021/04/28 03:55:17;;;;;;;10.25;6.78;;;;;;;4.54;100.00;101211.94;1821984;78;20932;-51
2021/04/28 03:57:45;;;;;;;11.97;6.72;;;;;;;4.62;100.00;101216.34;1825218;78;21386;-49
2021/04/28 04:00:15;;;;;;;11.65;6.85;;;;;;;4.65;100.00;101224.29;1824272;78;21114;-50
2021/04/28 04:02:42;;;;;;;9.20;6.00;;;;;;;4.70;100.00;101216.75;1824238;77;21146;-50
2021/04/28 04:05:14;;;;;;;8.93;5.87;;;;;;;4.80;100.00;101230.90;1764730;78;21174;-51
2021/04/28 04:08:01;;;;;;;9.73;5.72;;;;;;;4.80;100.00;101230.90;1824379;78;21443;-50
2021/04/28 04:10:31;;;;;;;11.85;6.12;;;;;;;4.94;100.00;101227.28;1824303;78;21366;-50
2021/04/28 04:13:00;;;;;;;10.03;5.85;;;;;;;5.09;100.00;101234.34;1824393;78;21150;-50
2021/04/28 04:15:30;;;;;;;9.45;5.22;;;;;;;5.22;100.00;101229.84;1824212;78;21149;-50
2021/04/28 04:17:58;;;;;;;9.53;5.90;;;;;;;5.39;99.12;101245.70;1824374;78;21098;-51
2021/04/28 04:20:28;;;;;;;8.70;5.33;;;;;;;5.39;99.12;101245.70;1822674;78;21074;-50
2021/04/28 04:23:00;;;;;;;8.85;5.83;;;;;;;5.44;98.80;101247.45;1823636;78;21675;-52
2021/04/28 04:25:32;;;;;;;12.78;6.78;;;;;;;5.48;97.67;101248.76;1822208;78;21176;-50
2021/04/28 04:28:00;;;;;;;14.68;6.17;;;;;;;5.49;97.44;101272.67;1824341;78;21060;-52
2021/04/28 04:30:49;;;;;;;13.05;6.47;;;;;;;5.43;97.23;101261.64;1824237;78;21114;-50
2021/04/28 04:33:36;;;;;;;11.75;5.92;;;;;;;5.42;97.27;101270.94;1774163;80;21130;-50
2021/04/28 04:36:22;;;;;;;9.60;6.10;;;;;;;5.39;97.51;101282.47;1774166;80;21818;-50
2021/04/28 04:39:08;;;;;;;9.85;6.10;;;;;;;5.36;97.57;101289.14;1804489;78;21070;-50
2021/04/28 04:41:41;;;;;;;9.23;6.62;;;;;;;5.36;97.84;101283.81;1822297;78;21078;-51
2021/04/28 04:44:10;;;;;;;10.65;6.00;;;;;;;5.35;97.92;101285.17;1785769;80;21507;-51
2021/04/28 04:46:42;;;;;;;10.80;6.30;;;;;;;5.36;97.83;101294.92;1787234;80;21160;-51
2021/04/28 04:49:09;;;;;;;10.25;6.47;;;;;;;5.37;97.63;101297.55;1770881;81;21191;-51
2021/04/28 04:51:37;;;;;;;11.35;6.30;;;;;;;5.43;97.90;101276.70;1756679;81;21073;-51
2021/04/28 04:54:06;;;;;;;12.13;7.00;;;;;;;5.43;97.90;101276.70;1776915;80;20977;-51
2021/04/28 04:56:33;;;;;;;10.13;6.35;;;;;;;5.53;97.73;101289.08;1756945;81;21130;-51
2021/04/28 04:59:02;;;;;;;11.12;6.40;;;;;;;5.53;97.73;101289.08;1758303;81;21058;-51
2021/04/28 05:01:29;;;;;;;9.63;6.47;;;;;;;5.54;97.68;101285.95;1758311;81;21359;-51
2021/04/28 05:03:57;;;;;;;10.65;6.67;;;;;;;5.57;97.73;101285.93;1758375;81;21089;-51
2021/04/28 05:06:25;;;;;;;8.20;5.80;;;;;;;5.63;97.84;101300.98;1757917;80;20984;-51
2021/04/28 05:08:52;;;;;;;9.45;6.55;;;;;;;5.67;97.54;101292.98;1781042;80;21169;-51
2021/04/28 05:11:20;;;;;;;11.40;6.00;;;;;;;5.69;97.48;101303.16;1789552;80;21023;-51
2021/04/28 05:13:49;;;;;;;7.53;5.05;;;;;;;5.72;97.24;101303.58;1780980;80;21364;-51
2021/04/28 05:16:16;;;;;;;8.98;5.12;;;;;;;5.74;96.93;101309.34;1780868;80;21058;-51
2021/04/28 05:18:45;;;;;;;8.25;5.28;;;;;;;5.78;96.79;101303.99;1780881;80;20983;-51
2021/04/28 05:21:13;;;;;;;7.33;4.97;;;;;;;5.83;96.67;101312.83;1780974;80;21118;-53
2021/04/28 05:23:41;;;;;;;7.50;4.87;;;;;;;5.87;96.50;101295.97;1780932;80;21058;-52
2021/04/28 05:26:22;;;;;;;9.15;4.90;;;;;;;5.89;96.34;101311.48;1704679;80;21713;-51
2021/04/28 05:28:50;;;;;;;8.35;5.22;;;;;;;5.94;96.09;101300.78;1750431;80;21067;-52
2021/04/28 05:31:18;;;;;;;8.15;4.92;;;;;;;5.99;95.78;101294.53;1781078;80;21065;-51
2021/04/28 05:33:47;;;;;;;9.55;4.95;;;;;;;6.04;95.72;101306.95;1780905;80;21168;-52
2021/04/28 05:36:16;;;;;;;7.03;4.28;;;;;;;6.09;95.66;101310.49;1780999;80;21544;-51
2021/04/28 05:38:44;;;;;;;9.18;4.70;;;;;;;6.14;95.48;101317.52;1781018;80;21372;-52
2021/04/28 05:41:12;;;;;;;6.25;4.35;;;;;;;6.19;94.91;101309.95;1781017;80;21176;-51
2021/04/28 05:43:39;;;;;;;6.25;4.25;;;;;;;6.23;94.32;101321.03;1780954;80;21611;-53
2021/04/28 05:46:10;;;;;;;6.30;4.00;;;;;;;6.25;93.51;101322.77;1781087;80;21173;-52
2021/04/28 05:48:37;;;;;;;6.83;4.00;;;;;;;6.27;93.52;101334.75;1789619;79;21090;-52
2021/04/28 05:51:06;;;;;;;6.42;3.90;;;;;;;6.30;92.94;101323.64;1780908;80;21449;-52
2021/04/28 05:53:34;;;;;;;6.50;4.28;;;;;;;6.34;92.31;101323.15;1780945;80;21117;-52
2021/04/28 05:56:06;;;;;;;6.30;4.00;;;;;;;6.35;92.02;101333.37;1780943;80;21180;-52
2021/04/28 05:58:34;;;;;;;5.58;4.05;;;;;;;6.33;91.49;101329.84;1776456;80;21578;-52
2021/04/28 06:01:02;;;;;;;8.65;4.25;;;;;;;6.29;91.21;101328.97;1756720;81;21051;-52
2021/04/28 06:03:30;;;;;;;6.22;3.80;;;;;;;6.24;90.99;101338.78;1776803;80;22111;-52
2021/04/28 06:05:58;;;;;;;6.47;4.25;;;;;;;6.23;91.14;101340.54;1776618;80;21080;-52
2021/04/28 06:08:25;;;;;;;7.45;4.67;;;;;;;6.24;91.11;101348.97;1756628;81;21105;-52
2021/04/28 06:10:57;;;;;;;8.60;4.80;;;;;;;6.26;90.87;101351.63;1756546;81;21153;-52
2021/04/28 06:13:27;;;;;;;6.00;3.75;;;;;;;6.28;90.87;101343.18;1758195;80;26678;-52
2021/04/28 06:15:55;;;;;;;7.78;4.00;;;;;;;6.28;90.32;101344.05;1787596;80;21700;-52
2021/04/28 06:18:23;;;;;;;7.03;3.98;;;;;;;6.28;90.16;101373.34;1770549;81;21163;-52
2021/04/28 06:20:50;;;;;;;6.12;4.10;;;;;;;6.30;89.54;101367.59;1756756;81;21110;-51
2021/04/28 06:23:20;;;;;;;8.68;4.30;;;;;;;6.29;89.45;101380.44;1756612;81;21097;-51
2021/04/28 06:25:49;;;;;;;5.58;3.80;;;;;;;6.29;89.24;101368.45;1787928;80;21073;-52
2021/04/28 06:28:17;;;;;;;6.37;4.33;;;;;;;6.34;89.39;101373.75;1759427;80;21086;-52
2021/04/28 06:30:45;;;;;;;10.28;4.08;;;;;;;6.40;88.85;101373.70;1766130;80;21176;-52
2021/04/28 06:33:15;;;;;;;7.37;4.60;;;;;;;6.42;88.52;101369.70;1720785;82;21152;-52
2021/04/28 06:35:43;;;;;;;6.12;4.03;;;;;;;6.40;88.55;101369.70;1749405;82;21113;-53
2021/04/28 06:38:11;;;;;;;5.25;3.62;;;;;;;6.42;89.10;101375.03;1770224;80;21049;-51
2021/04/28 06:40:39;;;;;;;7.22;4.15;;;;;;;6.45;89.03;101380.33;1780774;80;21361;-52
2021/04/28 06:43:07;;;;;;;5.47;4.08;;;;;;;6.51;88.98;101399.39;1780689;80;21093;-53
2021/04/28 06:45:36;;;;;;;6.72;4.00;;;;;;;6.52;88.53;101379.41;1777424;80;21102;-52
2021/04/28 06:48:04;;;;;;;9.48;4.20;;;;;;;6.51;88.82;101404.25;1765550;81;21133;-52
2021/04/28 06:50:32;;;;;;;5.85;4.25;;;;;;;6.52;88.88;101393.16;1765619;81;21423;-52
2021/04/28 06:53:00;;;;;;;5.37;3.75;;;;;;;6.53;88.79;101399.83;1765640;80;21689;-52
2021/04/28 06:55:29;;;;;;;9.25;4.55;;;;;;;6.50;88.00;101402.95;1776105;80;21141;-52
2021/04/28 06:57:58;;;;;;;5.25;4.12;;;;;;;6.48;88.59;101423.39;1774089;80;21163;-51
2021/04/28 07:00:28;;;;;;;6.10;4.28;;;;;;;6.48;88.19;101414.94;1780282;80;21119;-51
2021/04/28 07:02:56;;;;;;;7.05;4.05;;;;;;;6.49;88.14;101411.38;1784923;80;21098;-52
2021/04/28 07:05:24;;;;;;;5.40;3.70;;;;;;;6.51;88.07;101416.24;1755429;81;21328;-51
2021/04/28 07:07:55;;;;;;;5.72;4.15;;;;;;;6.55;87.98;101422.44;1755387;81;21152;-51
2021/04/28 07:10:25;;;;;;;7.97;4.20;;;;;;;6.53;87.66;101411.81;1755574;81;21135;-52
2021/04/28 07:12:55;;;;;;;6.20;4.00;;;;;;;6.52;87.84;101422.47;1755703;81;21211;-53
2021/04/28 07:15:22;;;;;;;4.78;3.87;;;;;;;6.50;87.47;101418.94;1755674;81;21191;-52
2021/04/28 07:17:51;;;;;;;4.90;3.60;;;;;;;6.46;87.75;101418.06;1755702;81;21543;-51
2021/04/28 07:20:19;;;;;;;7.78;4.22;;;;;;;6.50;88.01;101414.94;1755687;81;21587;-51
2021/04/28 07:22:47;;;;;;;7.83;3.85;;;;;;;6.55;87.91;101408.69;1756860;80;21101;-51
2021/04/28 07:25:15;;;;;;;8.98;4.30;;;;;;;6.68;87.61;101411.23;1738813;80;21124;-52
2021/04/28 07:27:46;;;;;;;5.35;3.83;;;;;;;6.82;87.39;101414.68;1772130;80;21116;-52
2021/04/28 07:30:16;;;;;;;7.42;3.40;;;;;;;7.03;87.05;101412.72;1786765;80;22250;-52
2021/04/28 07:32:44;;;;;;;7.47;3.95;;;;;;;7.26;86.31;101419.61;1773184;80;21164;-52
2021/04/28 07:35:15;;;;;;;7.67;3.75;;;;;;;7.39;85.25;101418.55;1771135;79;21141;-51
2021/04/28 07:37:44;;;;;;;5.20;3.80;;;;;;;7.48;84.00;101416.70;1724917;81;21132;-51
2021/04/28 07:40:13;;;;;;;4.65;3.42;;;;;;;7.49;82.91;101418.00;1764958;80;22518;-51
2021/04/28 07:42:44;;;;;;;3.92;3.08;;;;;;;7.48;82.82;101411.37;1767773;80;21207;-51
2021/04/28 07:45:17;;;;;;;4.40;3.50;;;;;;;7.48;81.96;101422.04;1744902;80;21157;-52
2021/04/28 07:47:45;;;;;;;5.30;3.87;;;;;;;7.52;81.99;101419.33;1783556;78;21580;-52
2021/04/28 07:50:16;;;;;;;8.38;3.90;;;;;;;7.54;82.31;101408.19;1764687;80;21533;-52
2021/04/28 07:52:49;;;;;;;8.13;4.05;;;;;;;7.55;82.21;101413.95;1752160;80;21097;-55
2021/04/28 07:55:20;;;;;;;4.83;3.60;;;;;;;7.52;82.13;101411.33;1762901;80;22499;-55
2021/04/28 07:57:51;;;;;;;5.37;4.28;;;;;;;7.49;81.88;101423.80;1770685;78;21065;-55
2021/04/28 08:00:21;;;;;;;7.25;3.67;;;;;;;7.40;81.96;101418.98;1775416;79;21176;-55
2021/04/28 08:02:49;;;;;;;6.72;4.62;;;;;;;7.35;82.54;101418.16;1778016;79;21664;-55
2021/04/28 08:05:17;;;;;;;5.50;4.20;;;;;;;7.33;82.71;101416.42;1766250;81;21137;-56
2021/04/28 08:07:46;;;;;;;4.45;3.75;;;;;;;7.31;83.04;101416.43;1758736;81;21192;-56
2021/04/28 08:10:15;;;;;;;5.72;3.52;;;;;;;7.32;83.26;101416.86;1731083;81;21002;-56
2021/04/28 08:12:43;;;;;;;5.28;3.92;;;;;;;7.31;83.26;101428.00;1766805;81;21127;-56
2021/04/28 08:15:12;;;;;;;5.12;3.65;;;;;;;7.27;82.89;101423.57;1766612;81;21048;-56
2021/04/28 08:17:40;;;;;;;4.47;3.17;;;;;;;7.22;82.64;101415.21;1766925;81;21214;-56
2021/04/28 08:20:09;;;;;;;5.22;3.47;;;;;;;7.19;83.05;101410.77;1766865;81;21380;-56
2021/04/28 08:22:38;;;;;;;6.53;3.85;;;;;;;7.15;83.33;101417.05;1766773;78;21152;-55
2021/04/28 08:25:10;;;;;;;6.45;3.45;;;;;;;7.16;83.65;101407.68;1766863;81;21126;-56
2021/04/28 08:27:38;;;;;;;6.45;4.28;;;;;;;7.23;82.95;101413.84;1766536;81;21085;-57
2021/04/28 08:30:10;;;;;;;5.35;3.85;;;;;;;7.24;83.13;101417.41;1766484;81;21110;-55
2021/04/28 08:32:38;;;;;;;4.55;3.30;;;;;;;7.29;83.06;101420.47;1766092;81;22322;-54
2021/04/28 08:35:13;;;;;;;7.87;4.03;;;;;;;7.39;82.82;101414.55;1777701;78;21549;-54
2021/04/28 08:37:38;;;;;;;4.92;3.58;;;;;;;7.54;82.31;101417.95;1766443;81;21191;-54
2021/04/28 08:40:08;;;;;;;4.42;3.47;;;;;;;7.66;81.83;101419.16;1766913;81;21169;-55
2021/04/28 08:42:35;;;;;;;6.80;3.77;;;;;;;7.76;80.87;101407.02;1766747;79;21145;-55
2021/04/28 08:45:05;;;;;;;4.90;3.20;;;;;;;7.82;80.04;101417.17;1771526;80;22137;-55
2021/04/28 08:47:34;;;;;;;6.75;3.58;;;;;;;7.87;79.70;101417.13;1766683;81;21149;-55
2021/04/28 08:50:05;;;;;;;5.00;4.00;;;;;;;7.93;79.92;101413.03;1768681;79;21172;-56
2021/04/28 08:52:35;;;;;;;5.40;4.00;;;;;;;7.94;80.09;101410.79;1766069;81;21204;-55
2021/04/28 08:55:07;;;;;;;6.85;3.52;;;;;;;7.93;80.17;101413.03;1777264;78;21169;-55
2021/04/28 08:57:38;;;;;;;;;;;;;;;7.85;80.13;101406.92;1786183;80;21439;-55
2021/04/28 09:00:07;;;;;;;5.17;3.55;;;;;;;7.72;80.42;101416.41;1772411;80;20214;-55
2021/04/28 09:02:35;;;;;;;4.78;3.65;;;;;;;7.62;80.75;101405.39;1735767;82;21561;-55
2021/04/28 09:05:07;;;;;;;5.62;3.90;;;;;;;7.59;81.31;101414.77;1755214;81;21124;-55
2021/04/28 09:07:38;;;;;;;6.33;4.40;;;;;;;7.58;81.68;101413.02;1742369;81;21121;-55
2021/04/28 09:10:14;;;;;;;5.65;3.75;;;;;;;7.58;81.87;101419.69;1749405;80;22701;-55
2021/04/28 09:13:01;;;;;;;5.78;3.90;;;;;;;7.59;81.26;101407.67;1774625;80;21560;-56
2021/04/28 09:15:50;;;;;;;8.40;4.28;;;;;;;7.61;81.24;101412.97;1786142;80;21125;-55
2021/04/28 09:18:22;;;;;;;5.45;4.00;;;;;;;7.63;81.54;101421.88;1765069;80;21509;-56
2021/04/28 09:21:02;;;;;;;4.78;3.45;;;;;;;7.65;81.00;101422.73;1872890;76;26918;-57
2021/04/28 09:23:48;;;;;;;6.53;3.95;;;;;;;7.55;81.25;101433.06;1840515;78;21084;-55
2021/04/28 09:26:34;;;;;;;7.70;4.30;;;;;;;7.48;81.68;101433.58;1831742;76;21332;-56
2021/04/28 09:29:18;;;;;;;6.15;4.70;;;;;;;7.42;81.90;101421.66;1815368;78;20926;-56
2021/04/28 09:32:01;;;;;;;5.60;4.20;;;;;;;7.40;82.05;101423.45;1833900;78;20986;-54
2021/04/28 09:34:41;;;;;;;6.55;4.97;;;;;;;7.38;82.15;101420.79;1824900;78;21516;-51
2021/04/28 09:37:15;;;;;;;6.65;4.80;;;;;;;7.33;82.32;101421.30;1839863;78;21598;-50
2021/04/28 09:39:49;;;;;;;7.37;4.67;;;;;;;7.29;82.62;101415.13;1753527;81;21381;-50
2021/04/28 09:42:19;;;;;;;9.28;4.87;;;;;;;7.26;82.73;101403.59;1768893;80;21561;-50
2021/04/28 09:44:49;;;;;;;9.75;5.47;;;;;;;7.22;83.18;101401.41;1772415;80;21120;-52
2021/04/28 09:47:21;;;;;;;9.55;5.03;;;;;;;7.20;83.68;101403.67;1757965;80;21499;-51
2021/04/28 09:50:03;;;;;;;6.87;4.72;;;;;;;7.17;83.68;101405.91;1749138;79;21560;-51
2021/04/28 09:52:41;;;;;;;9.68;4.30;;;;;;;7.15;83.66;101415.25;1748695;80;21208;-51
2021/04/28 09:55:14;;;;;;;7.08;4.72;;;;;;;7.13;83.60;101410.84;1778621;80;20943;-51
2021/04/28 09:57:44;;;;;;;6.37;4.50;;;;;;;7.14;83.94;101418.81;1777322;80;21193;-52
2021/04/28 10:00:24;;;;;;;5.60;4.42;;;;;;;7.13;83.88;101429.52;1777137;80;21624;-52
2021/04/28 10:03:01;;;;;;;6.67;4.65;;;;;;;7.11;83.81;101421.52;1774532;80;21133;-52
2021/04/28 10:05:32;;;;;;;9.78;5.33;;;;;;;7.11;84.16;101402.84;1760006;80;21637;-52
2021/04/28 10:08:20;;;;;;;7.15;4.80;;;;;;;7.13;84.52;101398.38;1776061;80;21011;-52
2021/04/28 10:10:48;;;;;;;7.78;5.40;;;;;;;7.19;84.53;101399.24;1763112;79;21108;-52
2021/04/28 10:13:15;;;;;;;7.47;4.67;;;;;;;7.19;84.52;101413.45;1747954;82;21603;-52
2021/04/28 10:15:45;;;;;;;7.85;5.00;;;;;;;7.21;84.58;101420.11;1754621;80;21069;-52
2021/04/28 10:18:15;;;;;;;6.30;5.17;;;;;;;7.21;85.07;101420.11;1778587;80;21283;-53
2021/04/28 10:20:46;;;;;;;7.40;5.17;;;;;;;7.23;85.15;101427.64;1780899;80;21078;-51
2021/04/28 10:23:17;;;;;;;6.47;4.85;;;;;;;7.24;85.14;101406.73;1758452;80;21161;-51
2021/04/28 10:25:49;;;;;;;6.58;4.95;;;;;;;7.24;84.99;101410.73;1773486;79;21153;-53
2021/04/28 10:28:18;;;;;;;7.63;5.03;;;;;;;7.24;85.11;101413.41;1768074;80;21160;-54
2021/04/28 10:30:48;;;;;;;7.55;5.45;;;;;;;7.27;85.50;101413.37;1727977;82;21413;-52
2021/04/28 10:33:22;;;;;;;6.75;4.87;;;;;;;7.31;85.80;101404.42;1750894;82;21561;-51
2021/04/28 10:35:51;;;;;;;7.03;5.30;;;;;;;7.37;85.77;101415.02;1767045;81;28166;-52
2021/04/28 10:38:26;;;;;;;9.55;5.50;;;;;;;7.45;85.48;101421.17;1766964;81;21152;-53
2021/04/28 10:40:54;;;;;;;;;;;;;;;7.50;84.89;101426.44;1711635;82;21109;-51
2021/04/28 10:43:36;;;;;;;8.58;5.53;;;;;;;7.56;84.63;101416.16;1756852;79;20223;-53
2021/04/28 10:46:19;;;;;;;6.87;5.40;;;;;;;7.64;84.41;101406.29;1764738;81;21503;-52
2021/04/28 10:48:52;;;;;;;8.20;5.65;;;;;;;7.80;83.76;101412.75;1764621;81;21176;-50
2021/04/28 10:51:38;;;;;;;10.10;6.12;;;;;;;7.88;82.94;101416.22;1740998;81;21132;-53
2021/04/28 10:54:24;;;;;;;8.15;5.85;;;;;;;7.94;82.98;101408.12;1740550;81;21254;-52
2021/04/28 10:57:06;;;;;;;9.75;6.28;;;;;;;8.01;82.61;101414.27;1776468;78;21354;-52
2021/04/28 10:59:38;;;;;;;8.85;5.97;;;;;;;8.11;82.20;101409.69;1795661;79;21092;-52
2021/04/28 11:02:12;;;;;;;7.62;5.50;;;;;;;8.16;82.13;101407.83;1798410;79;21681;-51
2021/04/28 11:04:45;;;;;;;8.00;5.70;;;;;;;8.22;81.88;101409.06;1789631;79;21126;-52
2021/04/28 11:07:15;;;;;;;8.55;5.60;;;;;;;8.27;81.33;101401.85;1766881;80;21062;-52
2021/04/28 11:09:42;;;;;;;7.35;5.92;;;;;;;8.31;81.11;101396.92;1766797;81;21423;-51
2021/04/28 11:12:11;;;;;;;8.38;6.30;;;;;;;8.34;81.14;101403.12;1793579;79;21120;-51
2021/04/28 11:14:47;;;;;;;9.53;6.12;;;;;;;8.40;81.49;101396.34;1782973;79;21050;-50
2021/04/28 11:17:23;;;;;;;9.35;6.58;;;;;;;8.49;80.86;101385.48;1798377;79;21117;-52
2021/04/28 11:19:52;;;;;;;8.63;5.83;;;;;;;8.57;80.58;101376.05;1796918;78;21189;-52
2021/04/28 11:22:29;;;;;;;9.33;5.53;;;;;;;8.69;79.65;101374.95;1772305;79;22284;-51
2021/04/28 11:25:13;;;;;;;7.17;5.72;;;;;;;8.80;79.15;101369.42;1768954;80;20900;-52
2021/04/28 11:28:06;;;;;;;8.65;5.65;;;;;;;8.93;78.17;101384.79;1803661;79;21205;-50
2021/04/28 11:30:44;;;;;;;8.53;5.90;;;;;;;9.04;77.83;101368.11;1786488;78;21129;-52
2021/04/28 11:33:32;;;;;;;7.70;6.03;;;;;;;9.17;78.01;101364.73;1776508;80;21074;-51
2021/04/28 11:36:07;;;;;;;8.55;5.58;;;;;;;9.31;78.08;101377.41;1792411;80;21351;-53
2021/04/28 11:38:39;;;;;;;8.40;5.83;;;;;;;9.42;77.07;101362.91;1789339;79;21145;-51
2021/04/28 11:41:15;;;;;;;9.83;5.83;;;;;;;9.50;75.80;101378.81;1777255;80;21164;-52
2021/04/28 11:43:56;;;;;;;8.65;5.75;;;;;;;9.57;75.50;101388.48;1776452;80;21171;-51
2021/04/28 11:46:27;;;;;;;7.55;5.72;;;;;;;9.59;75.18;101373.27;1755136;80;21140;-56
2021/04/28 11:48:59;;;;;;;9.75;5.42;;;;;;;9.56;74.03;101371.55;1755470;81;21209;-55